sensor_id;sensor_type;location;lat;lon;timestamp;pressure;altitude;pressure_sealevel;temperature;humidity
18569;BME280;14780;48.316;-1.050;2022-09-09T00:00:25;98521.09;;;24.35;48.87
18569;BME280;14780;48.316;-1.050;2022-09-09T00:03:17;98521.63;;;24.37;48.95
18569;BME280;14780;48.316;-1.050;2022-09-09T00:06:05;98516.72;;;24.34;49.03
18569;BME280;14780;48.316;-1.050;2022-09-09T00:09:11;98522.72;;;24.36;48.81
18569;BME280;14780;48.316;-1.050;2022-09-09T00:15:14;98518.13;;;24.32;48.89
18569;BME280;14780;48.316;-1.050;2022-09-09T00:18:22;98523.59;;;24.32;48.98
18569;BME280;14780;48.316;-1.050;2022-09-09T00:21:14;98519.78;;;24.28;49.08
18569;BME280;14780;48.316;-1.050;2022-09-09T00:24:11;98527.72;;;24.29;
18569;BME280;14780;48.316;-1.050;2022-09-09T00:27:07;98517.34;;;24.26;48.96
18569;BME280;14780;48.316;-1.050;2022-09-09T00:30:14;98528.00;;;24.28;49.08
18569;BME280;14780;48.316;-1.050;2022-09-09T00:33:11;98518.44;;;24.25;49.13
18569;BME280;14780;48.316;-1.050;2022-09-09T00:36:00;98524.50;;;24.22;49.10
18569;BME280;14780;48.316;-1.050;2022-09-09T00:38:55;98525.59;;;24.21;49.08
18569;BME280;14780;48.316;-1.050;2022-09-09T00:45:09;98521.25;;;24.20;49.09
18569;BME280;14780;48.316;-1.050;2022-09-09T00:48:02;98517.97;;;24.18;49.24
18569;BME280;14780;48.316;-1.050;2022-09-09T00:50:59;98519.06;;;24.17;49.29
18569;BME280;14780;48.316;-1.050;2022-09-09T00:59:59;98518.03;;;24.13;49.40
18569;BME280;14780;48.316;-1.050;2022-09-09T01:14:50;98510.66;;;24.09;49.48
18569;BME280;14780;48.316;-1.050;2022-09-09T01:26:50;98524.69;;;24.02;49.35
18569;BME280;14780;48.316;-1.050;2022-09-09T01:29:36;98524.69;;;24.02;49.50
18569;BME280;14780;48.316;-1.050;2022-09-09T01:32:40;98527.13;;;24.04;49.45
18569;BME280;14780;48.316;-1.050;2022-09-09T01:35:42;98532.88;;;24.02;49.50
18569;BME280;14780;48.316;-1.050;2022-09-09T01:38:28;98526.59;;;24.02;49.59
18569;BME280;14780;48.316;-1.050;2022-09-09T01:41:14;98519.81;;;23.99;49.58
18569;BME280;14780;48.316;-1.050;2022-09-09T01:43:59;98532.34;;;24.00;49.43
18569;BME280;14780;48.316;-1.050;2022-09-09T01:46:44;98526.88;;;24.00;49.62
18569;BME280;14780;48.316;-1.050;2022-09-09T01:49:28;98520.88;;;23.98;49.49
18569;BME280;14780;48.316;-1.050;2022-09-09T01:52:13;98527.44;;;23.97;49.60
18569;BME280;14780;48.316;-1.050;2022-09-09T01:54:58;98518.13;;;23.98;49.62
18569;BME280;14780;48.316;-1.050;2022-09-09T01:58:09;98520.06;;;23.98;49.49
18569;BME280;14780;48.316;-1.050;2022-09-09T02:01:14;98521.97;;;23.97;49.60
18569;BME280;14780;48.316;-1.050;2022-09-09T02:04:11;98525.03;;;23.96;49.62
18569;BME280;14780;48.316;-1.050;2022-09-09T02:07:00;98526.41;;;23.93;49.49
18569;BME280;14780;48.316;-1.050;2022-09-09T02:09:47;98527.19;;;23.94;49.51
18569;BME280;14780;48.316;-1.050;2022-09-09T02:12:34;98535.41;;;23.94;49.53
18569;BME280;14780;48.316;-1.050;2022-09-09T02:18:33;98535.69;;;23.92;49.63
18569;BME280;14780;48.316;-1.050;2022-09-09T02:21:20;98529.41;;;23.92;49.69
18569;BME280;14780;48.316;-1.050;2022-09-09T02:24:08;98534.34;;;23.90;49.77
18569;BME280;14780;48.316;-1.050;2022-09-09T02:26:56;98526.97;;;23.90;49.69
18569;BME280;14780;48.316;-1.050;2022-09-09T02:29:43;98530.78;;;23.89;49.78
18569;BME280;14780;48.316;-1.050;2022-09-09T02:32:29;98530.78;;;23.89;49.60
18569;BME280;14780;48.316;-1.050;2022-09-09T02:35:19;98530.78;;;23.89;49.79
18569;BME280;14780;48.316;-1.050;2022-09-09T02:38:09;98539.25;;;23.88;49.69
18569;BME280;14780;48.316;-1.050;2022-09-09T02:40:55;98534.91;;;23.87;49.75
18569;BME280;14780;48.316;-1.050;2022-09-09T02:43:40;98539.25;;;23.88;49.61
18569;BME280;14780;48.316;-1.050;2022-09-09T02:50:12;98543.09;;;23.87;49.76
18569;BME280;14780;48.316;-1.050;2022-09-09T02:53:20;98544.72;;;23.88;49.60
18569;BME280;14780;48.316;-1.050;2022-09-09T02:56:15;98537.09;;;23.85;49.83
18569;BME280;14780;48.316;-1.050;2022-09-09T02:59:04;98543.66;;;23.84;49.66
18569;BME280;14780;48.316;-1.050;2022-09-09T03:01:49;98541.19;;;23.82;49.71
18569;BME280;14780;48.316;-1.050;2022-09-09T03:04:33;98543.13;;;23.82;49.72
18569;BME280;14780;48.316;-1.050;2022-09-09T03:07:19;98545.03;;;23.81;49.92
18569;BME280;14780;48.316;-1.050;2022-09-09T03:10:04;98547.75;;;23.81;49.81
18569;BME280;14780;48.316;-1.050;2022-09-09T03:12:49;98541.19;;;23.82;49.95
18569;BME280;14780;48.316;-1.050;2022-09-09T03:15:34;98540.41;;;23.82;49.87
18569;BME280;14780;48.316;-1.050;2022-09-09T03:18:19;98542.56;;;23.80;49.81
18569;BME280;14780;48.316;-1.050;2022-09-09T03:21:04;98537.94;;;23.80;49.86
18569;BME280;14780;48.316;-1.050;2022-09-09T03:23:49;98543.41;;;23.80;49.94
18569;BME280;14780;48.316;-1.050;2022-09-09T03:26:34;98541.78;;;23.79;49.89
18569;BME280;14780;48.316;-1.050;2022-09-09T03:29:18;98541.78;;;23.79;49.93
18569;BME280;14780;48.316;-1.050;2022-09-09T03:32:03;98549.97;;;23.79;49.78
18569;BME280;14780;48.316;-1.050;2022-09-09T03:34:49;98548.34;;;23.78;49.78
18569;BME280;14780;48.316;-1.050;2022-09-09T03:37:36;98545.63;;;23.78;49.74
18569;BME280;14780;48.316;-1.050;2022-09-09T03:40:23;98544.78;;;23.78;49.88
18569;BME280;14780;48.316;-1.050;2022-09-09T03:43:08;98546.16;;;23.75;49.80
18569;BME280;14780;48.316;-1.050;2022-09-09T03:45:54;98548.91;;;23.75;49.93
18569;BME280;14780;48.316;-1.050;2022-09-09T03:48:41;98549.22;;;23.74;49.95
18569;BME280;14780;48.316;-1.050;2022-09-09T03:51:26;98548.91;;;23.75;49.90
18569;BME280;14780;48.316;-1.050;2022-09-09T03:54:11;98548.38;;;23.73;49.83
18569;BME280;14780;48.316;-1.050;2022-09-09T03:56:55;98541.81;;;23.74;49.96
18569;BME280;14780;48.316;-1.050;2022-09-09T03:59:41;98544.53;;;23.74;49.88
18569;BME280;14780;48.316;-1.050;2022-09-09T04:02:25;98543.75;;;23.74;49.84
18569;BME280;14780;48.316;-1.050;2022-09-09T04:05:10;98551.38;;;23.72;49.93
18569;BME280;14780;48.316;-1.050;2022-09-09T04:07:55;98548.97;;;23.70;49.83
18569;BME280;14780;48.316;-1.050;2022-09-09T04:10:39;98545.41;;;23.70;50.02
18569;BME280;14780;48.316;-1.050;2022-09-09T04:13:25;98552.47;;;23.71;49.89
18569;BME280;14780;48.316;-1.050;2022-09-09T04:16:11;98546.22;;;23.70;49.98
18569;BME280;14780;48.316;-1.050;2022-09-09T04:18:57;98559.88;;;23.70;49.97
18569;BME280;14780;48.316;-1.050;2022-09-09T04:21:42;98539.94;;;23.70;50.00
18569;BME280;14780;48.316;-1.050;2022-09-09T04:24:27;98546.50;;;23.69;49.90
18569;BME280;14780;48.316;-1.050;2022-09-09T04:27:13;98545.66;;;23.68;49.98
18569;BME280;14780;48.316;-1.050;2022-09-09T04:29:58;98547.88;;;23.66;50.14
18569;BME280;14780;48.316;-1.050;2022-09-09T04:32:43;98548.72;;;23.67;49.91
18569;BME280;14780;48.316;-1.050;2022-09-09T04:35:28;98547.59;;;23.68;49.88
18569;BME280;14780;48.316;-1.050;2022-09-09T04:38:12;98551.72;;;23.65;49.92
18569;BME280;14780;48.316;-1.050;2022-09-09T04:40:58;98553.34;;;23.66;50.03
18569;BME280;14780;48.316;-1.050;2022-09-09T04:43:43;98556.06;;;23.66;50.06
18569;BME280;14780;48.316;-1.050;2022-09-09T04:46:28;98555.25;;;23.66;50.09
18569;BME280;14780;48.316;-1.050;2022-09-09T04:49:12;98551.72;;;23.65;49.89
18569;BME280;14780;48.316;-1.050;2022-09-09T04:51:57;98554.44;;;23.65;50.06
18569;BME280;14780;48.316;-1.050;2022-09-09T04:54:42;98549.25;;;23.64;49.97
18569;BME280;14780;48.316;-1.050;2022-09-09T04:57:26;98557.16;;;23.65;49.94
18569;BME280;14780;48.316;-1.050;2022-09-09T05:00:12;98556.66;;;23.63;50.14
18569;BME280;14780;48.316;-1.050;2022-09-09T05:02:57;98559.38;;;23.63;50.10
18569;BME280;14780;48.316;-1.050;2022-09-09T05:05:42;98558.28;;;23.64;50.06
18569;BME280;14780;48.316;-1.050;2022-09-09T05:08:27;98563.19;;;23.62;50.07
18569;BME280;14780;48.316;-1.050;2022-09-09T05:14:03;98562.38;;;23.62;49.91
18569;BME280;14780;48.316;-1.050;2022-09-09T05:16:48;98570.31;;;23.63;49.94
18569;BME280;14780;48.316;-1.050;2022-09-09T05:19:34;98561.28;;;23.63;50.01
18569;BME280;14780;48.316;-1.050;2022-09-09T05:22:22;98565.38;;;23.60;50.06
18569;BME280;14780;48.316;-1.050;2022-09-09T05:25:08;98574.41;;;23.61;50.09
18569;BME280;14780;48.316;-1.050;2022-09-09T05:27:53;98570.06;;;23.60;50.14
18569;BME280;14780;48.316;-1.050;2022-09-09T05:30:38;98565.38;;;23.60;50.15
18569;BME280;14780;48.316;-1.050;2022-09-09T05:33:24;98568.13;;;23.60;50.19
18569;BME280;14780;48.316;-1.050;2022-09-09T05:36:18;98555.56;;;23.59;50.07
18569;BME280;14780;48.316;-1.050;2022-09-09T05:39:03;98578.53;;;23.58;50.19
18569;BME280;14780;48.316;-1.050;2022-09-09T05:41:48;98576.31;;;23.60;50.08
18569;BME280;14780;48.316;-1.050;2022-09-09T05:44:33;98579.31;;;23.59;50.15
18569;BME280;14780;48.316;-1.050;2022-09-09T05:47:18;98584.78;;;23.59;50.19
18569;BME280;14780;48.316;-1.050;2022-09-09T05:50:03;98584.78;;;23.59;50.01
18569;BME280;14780;48.316;-1.050;2022-09-09T05:52:47;98592.16;;;23.58;50.07
18569;BME280;14780;48.316;-1.050;2022-09-09T05:55:34;98585.88;;;23.58;50.10
18569;BME280;14780;48.316;-1.050;2022-09-09T05:58:19;98597.63;;;23.58;50.20
18569;BME280;14780;48.316;-1.050;2022-09-09T06:01:09;98582.34;;;23.57;50.10
18569;BME280;14780;48.316;-1.050;2022-09-09T06:03:55;98600.38;;;23.58;50.06
18569;BME280;14780;48.316;-1.050;2022-09-09T06:06:40;98600.63;;;23.57;50.22
18569;BME280;14780;48.316;-1.050;2022-09-09T06:09:26;98593.28;;;23.57;50.13
18569;BME280;14780;48.316;-1.050;2022-09-09T06:12:11;98593.28;;;23.57;50.28
18569;BME280;14780;48.316;-1.050;2022-09-09T06:14:55;98593.28;;;23.57;50.13
18569;BME280;14780;48.316;-1.050;2022-09-09T06:17:41;98602.28;;;23.58;50.15
18569;BME280;14780;48.316;-1.050;2022-09-09T06:20:26;98600.91;;;23.60;50.29
18569;BME280;14780;48.316;-1.050;2022-09-09T06:23:10;98598.16;;;23.60;50.46
18569;BME280;14780;48.316;-1.050;2022-09-09T06:26:09;98604.72;;;23.64;50.51
18569;BME280;14780;48.316;-1.050;2022-09-09T06:28:55;98612.91;;;23.59;50.50
18569;BME280;14780;48.316;-1.050;2022-09-09T06:31:41;98610.97;;;23.65;50.46
18569;BME280;14780;48.316;-1.050;2022-09-09T06:34:26;98615.63;;;23.64;50.50
18569;BME280;14780;48.316;-1.050;2022-09-09T06:37:11;98624.34;;;23.66;50.35
18569;BME280;14780;48.316;-1.050;2022-09-09T06:39:55;98621.63;;;23.66;50.33
18569;BME280;14780;48.316;-1.050;2022-09-09T06:42:40;98626.56;;;23.64;50.42
18569;BME280;14780;48.316;-1.050;2022-09-09T06:45:24;98623.00;;;23.64;50.42
18569;BME280;14780;48.316;-1.050;2022-09-09T06:48:10;98634.75;;;23.64;50.46
18569;BME280;14780;48.316;-1.050;2022-09-09T06:51:21;98628.97;;;23.66;50.43
18569;BME280;14780;48.316;-1.050;2022-09-09T06:54:06;98635.03;;;23.63;50.29
18569;BME280;14780;48.316;-1.050;2022-09-09T06:56:52;98639.13;;;23.60;50.50
18569;BME280;14780;48.316;-1.050;2022-09-09T06:59:38;98645.13;;;23.62;50.37
18569;BME280;14780;48.316;-1.050;2022-09-09T07:02:22;98642.38;;;23.62;50.42
18569;BME280;14780;48.316;-1.050;2022-09-09T07:05:08;98646.78;;;23.63;50.55
18569;BME280;14780;48.316;-1.050;2022-09-09T07:07:53;98644.59;;;23.60;50.40
18569;BME280;14780;48.316;-1.050;2022-09-09T07:10:38;98655.25;;;23.62;50.42
18569;BME280;14780;48.316;-1.050;2022-09-09T07:13:26;98660.44;;;23.63;50.46
18569;BME280;14780;48.316;-1.050;2022-09-09T07:16:14;98663.16;;;23.63;50.51
18569;BME280;14780;48.316;-1.050;2022-09-09T07:18:59;98657.41;;;23.65;50.46
18569;BME280;14780;48.316;-1.050;2022-09-09T07:21:45;98657.13;;;23.66;50.38
18569;BME280;14780;48.316;-1.050;2022-09-09T07:24:29;98659.84;;;23.66;50.41
18569;BME280;14780;48.316;-1.050;2022-09-09T07:27:15;98660.97;;;23.65;50.50
18569;BME280;14780;48.316;-1.050;2022-09-09T07:29:59;98663.41;;;23.67;50.37
18569;BME280;14780;48.316;-1.050;2022-09-09T07:32:44;98664.22;;;23.67;50.40
18569;BME280;14780;48.316;-1.050;2022-09-09T07:35:28;98654.13;;;23.68;50.42
18569;BME280;14780;48.316;-1.050;2022-09-09T07:38:13;98666.94;;;23.67;50.53
18569;BME280;14780;48.316;-1.050;2022-09-09T07:41:07;98662.00;;;23.69;50.48
18569;BME280;14780;48.316;-1.050;2022-09-09T07:43:56;98667.78;;;23.68;50.39
18569;BME280;14780;48.316;-1.050;2022-09-09T07:46:43;98665.84;;;23.68;50.45
18569;BME280;14780;48.316;-1.050;2022-09-09T07:49:29;98661.22;;;23.69;50.51
18569;BME280;14780;48.316;-1.050;2022-09-09T07:52:14;98670.22;;;23.69;50.40
18569;BME280;14780;48.316;-1.050;2022-09-09T07:54:59;98669.94;;;23.71;50.29
18569;BME280;14780;48.316;-1.050;2022-09-09T07:57:44;98675.13;;;23.72;50.49
18569;BME280;14780;48.316;-1.050;2022-09-09T08:00:29;98676.78;;;23.68;50.38
18569;BME280;14780;48.316;-1.050;2022-09-09T08:03:13;98685.22;;;23.72;50.39
18569;BME280;14780;48.316;-1.050;2022-09-09T08:06:04;98685.53;;;23.70;50.46
18569;BME280;14780;48.316;-1.050;2022-09-09T08:08:52;98693.16;;;23.68;50.46
18569;BME280;14780;48.316;-1.050;2022-09-09T08:11:38;98692.06;;;23.69;50.44
18569;BME280;14780;48.316;-1.050;2022-09-09T08:14:23;98704.66;;;23.70;50.39
18569;BME280;14780;48.316;-1.050;2022-09-09T08:17:09;98703.28;;;23.68;50.60
18569;BME280;14780;48.316;-1.050;2022-09-09T08:19:53;98703.28;;;23.68;50.39
18569;BME280;14780;48.316;-1.050;2022-09-09T08:22:38;98706.81;;;23.73;50.49
18569;BME280;14780;48.316;-1.050;2022-09-09T08:25:23;98699.44;;;23.74;50.40
18569;BME280;14780;48.316;-1.050;2022-09-09T08:28:08;98699.13;;;23.75;50.45
18569;BME280;14780;48.316;-1.050;2022-09-09T08:30:54;98707.06;;;23.77;50.49
18569;BME280;14780;48.316;-1.050;2022-09-09T08:33:39;98706.22;;;23.76;50.43
18569;BME280;14780;48.316;-1.050;2022-09-09T08:36:26;98710.31;;;23.79;50.41
18569;BME280;14780;48.316;-1.050;2022-09-09T08:39:13;98714.16;;;23.78;50.37
18569;BME280;14780;48.316;-1.050;2022-09-09T08:45:32;98721.25;;;23.79;50.16
18569;BME280;14780;48.316;-1.050;2022-09-09T08:51:07;98723.44;;;23.82;50.32
18569;BME280;14780;48.316;-1.050;2022-09-09T08:53:53;98732.72;;;23.81;50.44
18569;BME280;14780;48.316;-1.050;2022-09-09T08:56:39;98722.59;;;23.81;50.44
18569;BME280;14780;48.316;-1.050;2022-09-09T08:59:24;98721.50;;;23.82;50.33
18569;BME280;14780;48.316;-1.050;2022-09-09T09:02:26;98727.53;;;23.84;50.36
18569;BME280;14780;48.316;-1.050;2022-09-09T09:05:27;98736.53;;;23.85;50.27
18569;BME280;14780;48.316;-1.050;2022-09-09T09:08:29;98730.25;;;23.84;50.38
18569;BME280;14780;48.316;-1.050;2022-09-09T09:11:18;98740.94;;;23.81;50.26
18569;BME280;14780;48.316;-1.050;2022-09-09T09:14:24;98743.91;;;23.84;50.22
18569;BME280;14780;48.316;-1.050;2022-09-09T09:17:19;98744.47;;;23.81;50.29
18569;BME280;14780;48.316;-1.050;2022-09-09T09:20:11;98741.47;;;23.83;50.29
18569;BME280;14780;48.316;-1.050;2022-09-09T09:23:00;98739.53;;;23.83;50.40
18569;BME280;14780;48.316;-1.050;2022-09-09T09:25:46;98746.66;;;23.84;50.32
18569;BME280;14780;48.316;-1.050;2022-09-09T09:28:33;98738.19;;;23.86;50.32
18569;BME280;14780;48.316;-1.050;2022-09-09T09:31:18;98746.63;;;23.89;50.18
18569;BME280;14780;48.316;-1.050;2022-09-09T09:34:04;98751.56;;;23.92;50.29
18569;BME280;14780;48.316;-1.050;2022-09-09T09:36:59;98749.88;;;23.96;50.24
18569;BME280;14780;48.316;-1.050;2022-09-09T09:39:48;98752.88;;;23.95;50.23
18569;BME280;14780;48.316;-1.050;2022-09-09T09:42:33;98758.63;;;23.98;50.17
18569;BME280;14780;48.316;-1.050;2022-09-09T09:45:29;98752.59;;;24.01;50.10
18569;BME280;14780;48.316;-1.050;2022-09-09T09:48:14;98763.53;;;24.01;50.24
18569;BME280;14780;48.316;-1.050;2022-09-09T09:51:02;98772.25;;;24.03;50.28
18569;BME280;14780;48.316;-1.050;2022-09-09T09:53:48;98770.88;;;24.06;50.32
18569;BME280;14780;48.316;-1.050;2022-09-09T09:56:34;98779.63;;;24.08;50.29
18569;BME280;14780;48.316;-1.050;2022-09-09T09:59:37;98783.16;;;24.13;50.19
18569;BME280;14780;48.316;-1.050;2022-09-09T10:02:25;98772.78;;;24.10;50.38
18569;BME280;14780;48.316;-1.050;2022-09-09T10:08:12;98784.75;;;24.19;50.23
18569;BME280;14780;48.316;-1.050;2022-09-09T10:14:20;98784.19;;;24.22;50.43
18569;BME280;14780;48.316;-1.050;2022-09-09T10:17:40;98786.88;;;24.27;50.42
18569;BME280;14780;48.316;-1.050;2022-09-09T10:33:32;98795.59;;;24.34;50.71
18569;BME280;14780;48.316;-1.050;2022-09-09T10:36:13;98800.53;;;24.37;50.60
18569;BME280;14780;48.316;-1.050;2022-09-09T10:42:14;98802.94;;;24.44;50.88
18569;BME280;14780;48.316;-1.050;2022-09-09T10:45:25;98799.09;;;24.45;51.05
18569;BME280;14780;48.316;-1.050;2022-09-09T10:51:28;98800.94;;;24.54;50.91
18569;BME280;14780;48.316;-1.050;2022-09-09T10:57:27;98805.91;;;24.57;51.10
18569;BME280;14780;48.316;-1.050;2022-09-09T11:00:23;98813.00;;;24.58;51.20
18569;BME280;14780;48.316;-1.050;2022-09-09T11:03:19;98815.16;;;24.61;51.27
18569;BME280;14780;48.316;-1.050;2022-09-09T11:06:07;98814.31;;;24.66;51.43
18569;BME280;14780;48.316;-1.050;2022-09-09T11:08:58;98818.97;;;24.65;51.44
18569;BME280;14780;48.316;-1.050;2022-09-09T11:17:40;98806.44;;;24.59;51.35
18569;BME280;14780;48.316;-1.050;2022-09-09T11:20:27;98807.78;;;24.62;51.33
18569;BME280;14780;48.316;-1.050;2022-09-09T11:23:17;98807.47;;;24.68;51.37
18569;BME280;14780;48.316;-1.050;2022-09-09T11:26:04;98799.25;;;24.68;51.39
18569;BME280;14780;48.316;-1.050;2022-09-09T11:29:13;98807.16;;;24.75;51.41
18569;BME280;14780;48.316;-1.050;2022-09-09T11:38:44;98805.31;;;24.65;50.73
18569;BME280;14780;48.316;-1.050;2022-09-09T11:41:37;98809.47;;;24.53;50.55
18569;BME280;14780;48.316;-1.050;2022-09-09T11:44:29;98809.22;;;24.49;50.69
18569;BME280;14780;48.316;-1.050;2022-09-09T11:50:28;98819.63;;;24.42;50.79
18569;BME280;14780;48.316;-1.050;2022-09-09T11:53:22;98821.28;;;24.43;50.60
18569;BME280;14780;48.316;-1.050;2022-09-09T11:56:22;98824.28;;;24.42;50.70
18569;BME280;14780;48.316;-1.050;2022-09-09T11:59:33;98830.59;;;24.42;50.70
18569;BME280;14780;48.316;-1.050;2022-09-09T12:02:26;98814.44;;;24.41;50.69
18569;BME280;14780;48.316;-1.050;2022-09-09T12:05:12;98818.53;;;24.43;50.66
18569;BME280;14780;48.316;-1.050;2022-09-09T12:08:01;98824.78;;;24.49;50.58
18569;BME280;14780;48.316;-1.050;2022-09-09T12:10:59;98823.94;;;24.58;50.75
18569;BME280;14780;48.316;-1.050;2022-09-09T12:13:54;98819.47;;;24.72;50.67
18569;BME280;14780;48.316;-1.050;2022-09-09T12:16:39;98811.22;;;24.77;50.56
18569;BME280;14780;48.316;-1.050;2022-09-09T12:19:24;98821.59;;;24.80;50.50
18569;BME280;14780;48.316;-1.050;2022-09-09T12:32:06;98813.63;;;25.22;50.70
18569;BME280;14780;48.316;-1.050;2022-09-09T12:35:00;98817.69;;;25.25;50.53
18569;BME280;14780;48.316;-1.050;2022-09-09T12:37:54;98810.91;;;25.17;50.37
18569;BME280;14780;48.316;-1.050;2022-09-09T12:40:41;98807.41;;;25.12;50.43
18569;BME280;14780;48.316;-1.050;2022-09-09T12:43:27;98803.84;;;25.11;50.48
18569;BME280;14780;48.316;-1.050;2022-09-09T12:46:30;98800.78;;;25.18;50.49
18569;BME280;14780;48.316;-1.050;2022-09-09T12:49:37;98813.91;;;25.16;50.36
18569;BME280;14780;48.316;-1.050;2022-09-09T12:52:31;98819.50;;;25.06;50.15
18569;BME280;14780;48.316;-1.050;2022-09-09T12:55:23;98810.28;;;24.97;49.96
18569;BME280;14780;48.316;-1.050;2022-09-09T12:58:14;98818.25;;;24.88;49.83
18569;BME280;14780;48.316;-1.050;2022-09-09T13:01:03;98823.00;;;24.78;49.77
18569;BME280;14780;48.316;-1.050;2022-09-09T13:03:51;98835.06;;;24.72;49.61
18569;BME280;14780;48.316;-1.050;2022-09-09T13:06:36;98835.41;;;24.65;49.47
18569;BME280;14780;48.316;-1.050;2022-09-09T13:09:21;98842.78;;;24.60;49.62
18569;BME280;14780;48.316;-1.050;2022-09-09T13:12:14;98853.72;;;24.60;49.66
18569;BME280;14780;48.316;-1.050;2022-09-09T13:14:59;98860.31;;;24.59;49.68
18569;BME280;14780;48.316;-1.050;2022-09-09T13:17:50;98870.72;;;24.62;49.74
18569;BME280;14780;48.316;-1.050;2022-09-09T13:20:36;98892.03;;;24.60;49.94
18569;BME280;14780;48.316;-1.050;2022-09-09T13:23:22;98871.50;;;24.62;49.78
18569;BME280;14780;48.316;-1.050;2022-09-09T13:26:24;98866.84;;;24.68;49.91
18569;BME280;14780;48.316;-1.050;2022-09-09T13:29:18;98879.41;;;24.69;49.84
18569;BME280;14780;48.316;-1.050;2022-09-09T13:32:16;98859.97;;;24.70;49.94
18569;BME280;14780;48.316;-1.050;2022-09-09T13:35:02;98861.88;;;24.75;49.92
18569;BME280;14780;48.316;-1.050;2022-09-09T13:37:47;98860.47;;;24.77;50.11
18569;BME280;14780;48.316;-1.050;2022-09-09T13:40:31;98854.97;;;24.82;50.13
18569;BME280;14780;48.316;-1.050;2022-09-09T13:43:21;98856.06;;;24.86;50.16
18569;BME280;14780;48.316;-1.050;2022-09-09T13:46:27;98862.56;;;24.95;50.09
18569;BME280;14780;48.316;-1.050;2022-09-09T13:49:23;98859.34;;;25.17;50.06
18569;BME280;14780;48.316;-1.050;2022-09-09T13:52:15;98864.94;;;25.40;50.36
18569;BME280;14780;48.316;-1.050;2022-09-09T13:55:01;98856.59;;;25.55;50.15
18569;BME280;14780;48.316;-1.050;2022-09-09T13:57:55;98857.78;;;25.73;50.19
18569;BME280;14780;48.316;-1.050;2022-09-09T14:00:40;98860.34;;;25.88;50.08
18569;BME280;14780;48.316;-1.050;2022-09-09T14:03:25;98862.69;;;26.04;49.80
18569;BME280;14780;48.316;-1.050;2022-09-09T14:06:10;98862.25;;;26.16;49.75
18569;BME280;14780;48.316;-1.050;2022-09-09T14:08:55;98866.81;;;26.25;49.48
18569;BME280;14780;48.316;-1.050;2022-09-09T14:11:40;98859.47;;;26.21;49.29
18569;BME280;14780;48.316;-1.050;2022-09-09T14:14:25;98851.63;;;26.33;49.37
18569;BME280;14780;48.316;-1.050;2022-09-09T14:17:10;98846.69;;;26.35;49.20
18569;BME280;14780;48.316;-1.050;2022-09-09T14:19:55;98856.44;;;26.22;49.10
18569;BME280;14780;48.316;-1.050;2022-09-09T14:22:41;98854.28;;;26.19;49.10
18569;BME280;14780;48.316;-1.050;2022-09-09T14:25:25;98855.31;;;26.23;49.01
18569;BME280;14780;48.316;-1.050;2022-09-09T14:28:12;98863.00;;;26.21;48.85
18569;BME280;14780;48.316;-1.050;2022-09-09T14:31:00;98869.09;;;26.18;48.92
18569;BME280;14780;48.316;-1.050;2022-09-09T14:33:45;98863.09;;;26.16;48.81
18569;BME280;14780;48.316;-1.050;2022-09-09T14:36:30;98873.03;;;26.07;48.82
18569;BME280;14780;48.316;-1.050;2022-09-09T14:39:15;98873.19;;;25.97;48.80
18569;BME280;14780;48.316;-1.050;2022-09-09T14:41:59;98871.59;;;25.91;48.80
18569;BME280;14780;48.316;-1.050;2022-09-09T14:44:45;98879.91;;;25.81;48.63
18569;BME280;14780;48.316;-1.050;2022-09-09T14:47:30;98876.44;;;25.71;48.73
18569;BME280;14780;48.316;-1.050;2022-09-09T14:50:14;98877.31;;;25.66;49.03
18569;BME280;14780;48.316;-1.050;2022-09-09T14:52:59;98874.56;;;25.66;48.90
18569;BME280;14780;48.316;-1.050;2022-09-09T14:55:43;98886.09;;;25.63;48.90
18569;BME280;14780;48.316;-1.050;2022-09-09T14:58:33;98892.41;;;25.64;49.07
18569;BME280;14780;48.316;-1.050;2022-09-09T15:01:19;98882.00;;;25.61;48.95
18569;BME280;14780;48.316;-1.050;2022-09-09T15:04:05;98886.69;;;25.60;48.96
18569;BME280;14780;48.316;-1.050;2022-09-09T15:06:51;98874.63;;;25.61;49.04
18569;BME280;14780;48.316;-1.050;2022-09-09T15:09:37;98882.56;;;25.63;48.98
18569;BME280;14780;48.316;-1.050;2022-09-09T15:12:22;98882.97;;;25.75;48.93
18569;BME280;14780;48.316;-1.050;2022-09-09T15:15:07;98880.94;;;25.85;48.91
18569;BME280;14780;48.316;-1.050;2022-09-09T15:17:51;98881.75;;;25.91;48.79
18569;BME280;14780;48.316;-1.050;2022-09-09T15:20:36;98883.22;;;26.07;48.70
18569;BME280;14780;48.316;-1.050;2022-09-09T15:23:21;98876.81;;;26.16;48.60
18569;BME280;14780;48.316;-1.050;2022-09-09T15:26:07;98879.38;;;26.31;48.48
18569;BME280;14780;48.316;-1.050;2022-09-09T15:28:52;98880.19;;;26.50;48.52
18569;BME280;14780;48.316;-1.050;2022-09-09T15:31:37;98876.94;;;26.48;48.13
18569;BME280;14780;48.316;-1.050;2022-09-09T15:34:21;98877.88;;;26.62;48.06
18569;BME280;14780;48.316;-1.050;2022-09-09T15:37:09;98885.69;;;26.74;47.88
18569;BME280;14780;48.316;-1.050;2022-09-09T15:39:55;98878.47;;;26.59;47.72
18569;BME280;14780;48.316;-1.050;2022-09-09T15:42:40;98880.84;;;26.42;47.81
18569;BME280;14780;48.316;-1.050;2022-09-09T15:45:24;98882.69;;;26.28;47.94
18569;BME280;14780;48.316;-1.050;2022-09-09T15:48:11;98888.28;;;26.18;47.91
18569;BME280;14780;48.316;-1.050;2022-09-09T15:51:04;98898.19;;;26.14;48.08
18569;BME280;14780;48.316;-1.050;2022-09-09T15:53:53;98896.94;;;26.07;47.89
18569;BME280;14780;48.316;-1.050;2022-09-09T15:56:38;98897.81;;;26.02;48.15
18569;BME280;14780;48.316;-1.050;2022-09-09T15:59:24;98895.09;;;25.97;48.09
18569;BME280;14780;48.316;-1.050;2022-09-09T16:02:09;98898.44;;;25.94;48.30
18569;BME280;14780;48.316;-1.050;2022-09-09T16:04:54;98895.47;;;25.91;48.27
18569;BME280;14780;48.316;-1.050;2022-09-09T16:07:39;98896.84;;;25.88;48.18
18569;BME280;14780;48.316;-1.050;2022-09-09T16:10:24;98896.84;;;25.88;48.38
18569;BME280;14780;48.316;-1.050;2022-09-09T16:13:08;98895.75;;;25.89;48.49
18569;BME280;14780;48.316;-1.050;2022-09-09T16:15:56;98896.56;;;25.90;48.51
18569;BME280;14780;48.316;-1.050;2022-09-09T16:18:45;98897.09;;;25.87;48.53
18569;BME280;14780;48.316;-1.050;2022-09-09T16:21:32;98891.91;;;25.85;48.60
18569;BME280;14780;48.316;-1.050;2022-09-09T16:24:18;98892.22;;;25.84;48.52